Aérodrome de la Montagne Noire

LFMG · Upper Garonne, Occitanie, 法国

使用的TAF站离机场有29 km的距离
2024年3月2日 10:002024年3月2日 19:00有效
时间
星期六
10:00
>40%
星期六
11:00
>40%
星期六
12:00
>40%
星期六
13:00
>40%
星期六
14:00
>40%
星期六
15:00
>40%
星期六
16:00
>40%
星期六
17:00
>40%
星期六
18:00
>40%
代码
VFR
VFR
VFR
VFR
VFR
VFR
VFR
VFR
VFR
天气
天空晴朗
天空晴朗
天空晴朗
天空晴朗
天空晴朗
天空晴朗
天空晴朗
天空晴朗
天空晴朗
能见度
10 km+
10 km+
10 km+
10 km+
10 km+
10 km+
10 km+
10 km+
10 km+
天花板
-
-
-
-
-
-
-
-
-
140°
140°
140°
140°
140°
140°
140°
140°
140°
140°
140°
140°
140°
140°
140°
140°
140°
140°
速度
20 kt
20 kt
20 kt
20 kt
20 kt
20 kt
20 kt
20 kt
20 kt
阵风
30 kt
30 kt
30 kt
30 kt
30 kt
30 kt
30 kt
30 kt
30 kt
温度/星期日
18:41

原版的

TAF LFCK 020800Z 0209/0218 12015G25KT CAVOK
TEMPO 0209/0218 14020G30KT

TAF Aérodrome de la Montagne Noire

Aérodrome de la Montagne Noire是,法国中的小机场。 该机场位于纬度43,40795和经度1,98955。 该机场有3条跑道: 12/30, 18/36 和 3/21. 本场的ICAO机场代码为LFMG。 机场在Bordeaux FIR中。

该航空气象观测是针对Castres-Mazamet Airport在2024年3月2日 09:00, 当地时间进行的。 从2024年3月2日 10:00到2024年3月2日 19:00, 当地时间有效.

预报

  • 在星期六 10:00和19:00之间

    • 风: 风来自120°方向,速度为15 kt。 预计25 kt阵风。
    • CAVOK: 天气为CAVOK。这意味着在5.000 ft或MSA(最低安全高度)以下(以较高者为准)以下没有云。这也意味着没有观测到积雨云或高耸的积云,可见度为10 km 或者更多或更高。此外,不会有雾,降雨或其他重要天气。
  • 暂时在星期六 10:00和19:00之间

    • 风: 风来自140°方向,速度为20 kt。 预计30 kt阵风。

白天

今天,太阳从07:25升起,在18:42降落。 这适用于Aérodrome de la Montagne Noire,世界夏令时可能有所不同。 当地时间与世界标准时间之间的时差为+1 小时。 当前,没有夏令时有效。